sensor_id;sensor_type;location;lat;lon;timestamp;P1;durP1;ratioP1;P2;durP2;ratioP2
11471;SDS011;47430;50.808;4.388;2022-09-03T00:01:05;6.80;;;3.78;;
11471;SDS011;47430;50.808;4.388;2022-09-03T00:03:36;11.48;;;4.32;;
11471;SDS011;47430;50.808;4.388;2022-09-03T00:06:07;4.70;;;3.80;;
11471;SDS011;47430;50.808;4.388;2022-09-03T00:08:36;7.47;;;4.35;;
11471;SDS011;47430;50.808;4.388;2022-09-03T00:13:34;5.68;;;3.80;;
11471;SDS011;47430;50.808;4.388;2022-09-03T00:16:02;4.50;;;3.88;;
11471;SDS011;47430;50.808;4.388;2022-09-03T00:18:34;4.88;;;3.60;;
11471;SDS011;47430;50.808;4.388;2022-09-03T00:21:09;7.30;;;3.83;;
11471;SDS011;47430;50.808;4.388;2022-09-03T00:23:38;5.00;;;3.42;;
11471;SDS011;47430;50.808;4.388;2022-09-03T00:28:37;5.65;;;3.03;;
11471;SDS011;47430;50.808;4.388;2022-09-03T00:31:27;3.97;;;3.13;;
11471;SDS011;47430;50.808;4.388;2022-09-03T00:33:55;4.55;;;3.17;;
11471;SDS011;47430;50.808;4.388;2022-09-03T00:36:41;4.05;;;3.47;;
11471;SDS011;47430;50.808;4.388;2022-09-03T00:39:26;4.50;;;3.30;;
11471;SDS011;47430;50.808;4.388;2022-09-03T00:47:10;3.83;;;2.70;;
11471;SDS011;47430;50.808;4.388;2022-09-03T00:52:31;4.45;;;2.88;;
11471;SDS011;47430;50.808;4.388;2022-09-03T00:55:02;4.45;;;2.88;;
11471;SDS011;47430;50.808;4.388;2022-09-03T00:57:34;5.10;;;2.60;;
11471;SDS011;47430;50.808;4.388;2022-09-03T01:00:07;3.33;;;3.00;;
11471;SDS011;47430;50.808;4.388;2022-09-03T01:07:32;4.90;;;3.08;;
11471;SDS011;47430;50.808;4.388;2022-09-03T01:10:12;4.72;;;2.75;;
11471;SDS011;47430;50.808;4.388;2022-09-03T01:12:51;2.85;;;2.55;;
11471;SDS011;47430;50.808;4.388;2022-09-03T01:15:29;6.05;;;2.90;;
11471;SDS011;47430;50.808;4.388;2022-09-03T01:18:01;5.15;;;2.90;;
11471;SDS011;47430;50.808;4.388;2022-09-03T01:30:38;4.10;;;2.75;;
11471;SDS011;47430;50.808;4.388;2022-09-03T01:39:11;3.97;;;3.10;;
11471;SDS011;47430;50.808;4.388;2022-09-03T01:41:52;4.93;;;3.25;;
11471;SDS011;47430;50.808;4.388;2022-09-03T01:44:48;3.95;;;2.70;;
11471;SDS011;47430;50.808;4.388;2022-09-03T01:50:15;5.82;;;3.28;;
11471;SDS011;47430;50.808;4.388;2022-09-03T01:52:50;5.00;;;3.17;;
11471;SDS011;47430;50.808;4.388;2022-09-03T01:55:30;7.45;;;3.40;;
11471;SDS011;47430;50.808;4.388;2022-09-03T01:58:10;3.97;;;2.70;;
11471;SDS011;47430;50.808;4.388;2022-09-03T02:00:37;3.88;;;2.60;;
11471;SDS011;47430;50.808;4.388;2022-09-03T02:03:06;8.55;;;3.38;;
11471;SDS011;47430;50.808;4.388;2022-09-03T02:05:33;4.75;;;3.20;;
11471;SDS011;47430;50.808;4.388;2022-09-03T02:08:02;3.38;;;2.50;;
11471;SDS011;47430;50.808;4.388;2022-09-03T02:13:53;3.40;;;3.10;;
11471;SDS011;47430;50.808;4.388;2022-09-03T02:15:54;3.63;;;2.90;;
11471;SDS011;47430;50.808;4.388;2022-09-03T02:18:25;4.13;;;3.20;;
11471;SDS011;47430;50.808;4.388;2022-09-03T02:20:55;3.05;;;2.60;;
11471;SDS011;47430;50.808;4.388;2022-09-03T02:23:22;4.70;;;3.15;;
11471;SDS011;47430;50.808;4.388;2022-09-03T02:25:50;3.88;;;2.97;;
11471;SDS011;47430;50.808;4.388;2022-09-03T02:28:17;4.60;;;2.85;;
11471;SDS011;47430;50.808;4.388;2022-09-03T02:30:43;3.85;;;3.10;;
11471;SDS011;47430;50.808;4.388;2022-09-03T02:33:10;3.15;;;2.80;;
11471;SDS011;47430;50.808;4.388;2022-09-03T02:35:36;6.95;;;3.42;;
11471;SDS011;47430;50.808;4.388;2022-09-03T02:40:41;4.03;;;3.47;;
11471;SDS011;47430;50.808;4.388;2022-09-03T02:43:07;4.22;;;3.75;;
11471;SDS011;47430;50.808;4.388;2022-09-03T02:45:37;4.03;;;3.33;;
11471;SDS011;47430;50.808;4.388;2022-09-03T02:48:07;8.35;;;3.72;;
11471;SDS011;47430;50.808;4.388;2022-09-03T02:50:39;4.85;;;3.58;;
11471;SDS011;47430;50.808;4.388;2022-09-03T02:53:05;7.50;;;4.22;;
11471;SDS011;47430;50.808;4.388;2022-09-03T02:55:31;7.88;;;4.88;;
11471;SDS011;47430;50.808;4.388;2022-09-03T02:57:57;5.00;;;3.67;;
11471;SDS011;47430;50.808;4.388;2022-09-03T03:00:24;4.47;;;3.88;;
11471;SDS011;47430;50.808;4.388;2022-09-03T03:02:53;5.53;;;4.50;;
11471;SDS011;47430;50.808;4.388;2022-09-03T03:05:27;5.13;;;3.78;;
11471;SDS011;47430;50.808;4.388;2022-09-03T03:07:55;17.08;;;4.65;;
11471;SDS011;47430;50.808;4.388;2022-09-03T03:10:26;8.65;;;4.25;;
11471;SDS011;47430;50.808;4.388;2022-09-03T03:12:53;6.90;;;3.97;;
11471;SDS011;47430;50.808;4.388;2022-09-03T03:15:19;8.27;;;4.60;;
11471;SDS011;47430;50.808;4.388;2022-09-03T03:17:45;5.43;;;4.38;;
11471;SDS011;47430;50.808;4.388;2022-09-03T03:20:12;7.13;;;4.80;;
11471;SDS011;47430;50.808;4.388;2022-09-03T03:22:38;8.75;;;4.97;;
11471;SDS011;47430;50.808;4.388;2022-09-03T03:25:04;7.20;;;5.00;;
11471;SDS011;47430;50.808;4.388;2022-09-03T03:27:31;6.55;;;4.13;;
11471;SDS011;47430;50.808;4.388;2022-09-03T03:29:57;8.32;;;4.68;;
11471;SDS011;47430;50.808;4.388;2022-09-03T03:32:23;6.80;;;4.35;;
11471;SDS011;47430;50.808;4.388;2022-09-03T03:34:49;4.32;;;3.75;;
11471;SDS011;47430;50.808;4.388;2022-09-03T03:37:15;6.32;;;3.60;;
11471;SDS011;47430;50.808;4.388;2022-09-03T03:39:41;4.25;;;3.33;;
11471;SDS011;47430;50.808;4.388;2022-09-03T03:42:08;3.97;;;3.05;;
11471;SDS011;47430;50.808;4.388;2022-09-03T03:44:34;3.45;;;3.15;;
11471;SDS011;47430;50.808;4.388;2022-09-03T03:47:00;4.22;;;3.10;;
11471;SDS011;47430;50.808;4.388;2022-09-03T03:49:27;5.90;;;3.63;;
11471;SDS011;47430;50.808;4.388;2022-09-03T03:51:53;5.97;;;3.70;;
11471;SDS011;47430;50.808;4.388;2022-09-03T03:54:19;6.93;;;3.58;;
11471;SDS011;47430;50.808;4.388;2022-09-03T03:56:48;4.53;;;3.45;;
11471;SDS011;47430;50.808;4.388;2022-09-03T03:59:14;3.78;;;3.38;;
11471;SDS011;47430;50.808;4.388;2022-09-03T04:01:40;3.78;;;3.40;;
11471;SDS011;47430;50.808;4.388;2022-09-03T04:04:06;4.22;;;3.10;;
11471;SDS011;47430;50.808;4.388;2022-09-03T04:06:33;3.90;;;3.42;;
11471;SDS011;47430;50.808;4.388;2022-09-03T04:08:59;5.15;;;3.53;;
11471;SDS011;47430;50.808;4.388;2022-09-03T04:11:25;3.65;;;3.10;;
11471;SDS011;47430;50.808;4.388;2022-09-03T04:13:51;3.45;;;3.00;;
11471;SDS011;47430;50.808;4.388;2022-09-03T04:16:19;3.50;;;3.20;;
11471;SDS011;47430;50.808;4.388;2022-09-03T04:18:45;5.32;;;3.08;;
11471;SDS011;47430;50.808;4.388;2022-09-03T04:21:14;5.28;;;3.30;;
11471;SDS011;47430;50.808;4.388;2022-09-03T04:23:41;3.85;;;2.80;;
11471;SDS011;47430;50.808;4.388;2022-09-03T04:26:08;4.93;;;3.50;;
11471;SDS011;47430;50.808;4.388;2022-09-03T04:28:35;3.90;;;3.40;;
11471;SDS011;47430;50.808;4.388;2022-09-03T04:31:02;3.88;;;3.10;;
11471;SDS011;47430;50.808;4.388;2022-09-03T04:33:29;3.72;;;3.08;;
11471;SDS011;47430;50.808;4.388;2022-09-03T04:36:09;3.72;;;3.10;;
11471;SDS011;47430;50.808;4.388;2022-09-03T04:38:36;6.60;;;3.45;;
11471;SDS011;47430;50.808;4.388;2022-09-03T04:41:03;6.20;;;3.45;;
11471;SDS011;47430;50.808;4.388;2022-09-03T04:43:29;5.22;;;3.22;;
11471;SDS011;47430;50.808;4.388;2022-09-03T04:45:56;3.58;;;2.95;;
11471;SDS011;47430;50.808;4.388;2022-09-03T04:48:22;6.45;;;3.00;;
11471;SDS011;47430;50.808;4.388;2022-09-03T04:50:48;4.78;;;3.10;;
11471;SDS011;47430;50.808;4.388;2022-09-03T04:53:14;4.55;;;3.45;;
11471;SDS011;47430;50.808;4.388;2022-09-03T04:55:41;7.00;;;3.85;;
11471;SDS011;47430;50.808;4.388;2022-09-03T04:58:10;3.38;;;2.85;;
11471;SDS011;47430;50.808;4.388;2022-09-03T05:00:37;3.85;;;3.35;;
11471;SDS011;47430;50.808;4.388;2022-09-03T05:03:03;3.10;;;2.80;;
11471;SDS011;47430;50.808;4.388;2022-09-03T05:05:30;5.13;;;3.28;;
11471;SDS011;47430;50.808;4.388;2022-09-03T05:07:58;5.80;;;4.07;;
11471;SDS011;47430;50.808;4.388;2022-09-03T05:10:25;5.78;;;3.00;;
11471;SDS011;47430;50.808;4.388;2022-09-03T05:13:02;4.80;;;3.30;;
11471;SDS011;47430;50.808;4.388;2022-09-03T05:15:29;3.78;;;3.38;;
11471;SDS011;47430;50.808;4.388;2022-09-03T05:17:56;3.58;;;3.25;;
11471;SDS011;47430;50.808;4.388;2022-09-03T05:20:22;4.05;;;3.40;;
11471;SDS011;47430;50.808;4.388;2022-09-03T05:22:49;5.20;;;3.95;;
11471;SDS011;47430;50.808;4.388;2022-09-03T05:25:15;3.38;;;3.03;;
11471;SDS011;47430;50.808;4.388;2022-09-03T05:27:42;7.07;;;3.72;;
11471;SDS011;47430;50.808;4.388;2022-09-03T05:30:08;5.13;;;3.40;;
11471;SDS011;47430;50.808;4.388;2022-09-03T05:32:34;7.57;;;3.72;;
11471;SDS011;47430;50.808;4.388;2022-09-03T05:35:00;6.65;;;3.80;;
11471;SDS011;47430;50.808;4.388;2022-09-03T05:37:26;6.85;;;3.35;;
11471;SDS011;47430;50.808;4.388;2022-09-03T05:39:52;6.03;;;3.45;;
11471;SDS011;47430;50.808;4.388;2022-09-03T05:42:19;4.40;;;3.10;;
11471;SDS011;47430;50.808;4.388;2022-09-03T05:44:46;4.60;;;3.60;;
11471;SDS011;47430;50.808;4.388;2022-09-03T05:47:13;5.63;;;3.70;;
11471;SDS011;47430;50.808;4.388;2022-09-03T05:49:40;7.25;;;3.92;;
11471;SDS011;47430;50.808;4.388;2022-09-03T05:52:06;4.55;;;3.38;;
11471;SDS011;47430;50.808;4.388;2022-09-03T05:54:34;4.95;;;3.88;;
11471;SDS011;47430;50.808;4.388;2022-09-03T05:57:00;6.47;;;3.50;;
11471;SDS011;47430;50.808;4.388;2022-09-03T05:59:26;4.72;;;3.78;;
11471;SDS011;47430;50.808;4.388;2022-09-03T06:01:52;8.65;;;3.80;;
11471;SDS011;47430;50.808;4.388;2022-09-03T06:04:18;3.80;;;3.35;;
11471;SDS011;47430;50.808;4.388;2022-09-03T06:06:45;6.47;;;3.40;;
11471;SDS011;47430;50.808;4.388;2022-09-03T06:09:16;5.32;;;3.47;;
11471;SDS011;47430;50.808;4.388;2022-09-03T06:11:42;4.57;;;3.38;;
11471;SDS011;47430;50.808;4.388;2022-09-03T06:14:09;4.95;;;3.40;;
11471;SDS011;47430;50.808;4.388;2022-09-03T06:16:38;4.15;;;3.30;;
11471;SDS011;47430;50.808;4.388;2022-09-03T06:19:04;3.83;;;3.08;;
11471;SDS011;47430;50.808;4.388;2022-09-03T06:21:34;6.38;;;3.42;;
11471;SDS011;47430;50.808;4.388;2022-09-03T06:24:01;4.50;;;3.28;;
11471;SDS011;47430;50.808;4.388;2022-09-03T06:26:27;5.97;;;3.38;;
11471;SDS011;47430;50.808;4.388;2022-09-03T06:28:53;5.55;;;3.05;;
11471;SDS011;47430;50.808;4.388;2022-09-03T06:31:21;4.35;;;3.67;;
11471;SDS011;47430;50.808;4.388;2022-09-03T06:33:48;6.60;;;3.35;;
11471;SDS011;47430;50.808;4.388;2022-09-03T06:36:17;3.95;;;2.58;;
11471;SDS011;47430;50.808;4.388;2022-09-03T06:38:45;5.35;;;3.28;;
11471;SDS011;47430;50.808;4.388;2022-09-03T06:41:15;5.32;;;3.28;;
11471;SDS011;47430;50.808;4.388;2022-09-03T06:43:49;4.68;;;3.08;;
11471;SDS011;47430;50.808;4.388;2022-09-03T06:46:16;3.28;;;2.97;;
11471;SDS011;47430;50.808;4.388;2022-09-03T06:48:42;7.10;;;3.38;;
11471;SDS011;47430;50.808;4.388;2022-09-03T06:51:14;9.18;;;3.08;;
11471;SDS011;47430;50.808;4.388;2022-09-03T06:53:42;4.75;;;2.95;;
11471;SDS011;47430;50.808;4.388;2022-09-03T06:56:10;6.80;;;2.78;;
11471;SDS011;47430;50.808;4.388;2022-09-03T06:58:41;6.30;;;3.08;;
11471;SDS011;47430;50.808;4.388;2022-09-03T07:01:10;8.00;;;3.55;;
11471;SDS011;47430;50.808;4.388;2022-09-03T07:03:37;6.38;;;2.80;;
11471;SDS011;47430;50.808;4.388;2022-09-03T07:06:10;4.88;;;3.13;;
11471;SDS011;47430;50.808;4.388;2022-09-03T07:08:37;10.35;;;3.15;;
11471;SDS011;47430;50.808;4.388;2022-09-03T07:11:05;4.28;;;3.38;;
11471;SDS011;47430;50.808;4.388;2022-09-03T07:13:35;4.30;;;2.92;;
11471;SDS011;47430;50.808;4.388;2022-09-03T07:16:03;6.50;;;3.00;;
11471;SDS011;47430;50.808;4.388;2022-09-03T07:18:30;4.18;;;3.08;;
11471;SDS011;47430;50.808;4.388;2022-09-03T07:20:57;4.25;;;3.38;;
11471;SDS011;47430;50.808;4.388;2022-09-03T07:23:23;4.78;;;3.30;;
11471;SDS011;47430;50.808;4.388;2022-09-03T07:25:56;7.50;;;3.53;;
11471;SDS011;47430;50.808;4.388;2022-09-03T07:28:23;12.13;;;3.60;;
11471;SDS011;47430;50.808;4.388;2022-09-03T07:30:53;7.60;;;3.10;;
11471;SDS011;47430;50.808;4.388;2022-09-03T07:33:20;5.70;;;3.15;;
11471;SDS011;47430;50.808;4.388;2022-09-03T07:35:47;7.97;;;3.58;;
11471;SDS011;47430;50.808;4.388;2022-09-03T07:38:17;4.20;;;3.35;;
11471;SDS011;47430;50.808;4.388;2022-09-03T07:40:44;5.35;;;3.20;;
11471;SDS011;47430;50.808;4.388;2022-09-03T07:43:11;5.28;;;3.80;;
11471;SDS011;47430;50.808;4.388;2022-09-03T07:45:37;4.95;;;3.55;;
11471;SDS011;47430;50.808;4.388;2022-09-03T07:48:03;5.53;;;3.40;;
11471;SDS011;47430;50.808;4.388;2022-09-03T07:50:30;6.68;;;3.45;;
11471;SDS011;47430;50.808;4.388;2022-09-03T07:53:03;4.80;;;3.40;;
11471;SDS011;47430;50.808;4.388;2022-09-03T07:55:29;3.58;;;3.00;;
11471;SDS011;47430;50.808;4.388;2022-09-03T07:57:55;5.20;;;2.67;;
11471;SDS011;47430;50.808;4.388;2022-09-03T08:00:23;3.97;;;3.38;;
11471;SDS011;47430;50.808;4.388;2022-09-03T08:02:52;6.28;;;3.63;;
11471;SDS011;47430;50.808;4.388;2022-09-03T08:05:19;6.82;;;3.05;;
11471;SDS011;47430;50.808;4.388;2022-09-03T08:07:45;5.03;;;2.95;;
11471;SDS011;47430;50.808;4.388;2022-09-03T08:10:12;4.82;;;3.30;;
11471;SDS011;47430;50.808;4.388;2022-09-03T08:12:38;5.53;;;3.42;;
11471;SDS011;47430;50.808;4.388;2022-09-03T08:15:05;5.05;;;3.25;;
11471;SDS011;47430;50.808;4.388;2022-09-03T08:17:32;9.45;;;3.50;;
11471;SDS011;47430;50.808;4.388;2022-09-03T08:19:58;4.28;;;3.20;;
11471;SDS011;47430;50.808;4.388;2022-09-03T08:22:24;8.63;;;3.63;;
11471;SDS011;47430;50.808;4.388;2022-09-03T08:24:51;12.77;;;5.03;;
11471;SDS011;47430;50.808;4.388;2022-09-03T08:27:18;5.07;;;3.17;;
11471;SDS011;47430;50.808;4.388;2022-09-03T08:29:49;6.30;;;3.20;;
11471;SDS011;47430;50.808;4.388;2022-09-03T08:32:15;4.90;;;2.80;;
11471;SDS011;47430;50.808;4.388;2022-09-03T08:34:41;8.45;;;3.03;;
11471;SDS011;47430;50.808;4.388;2022-09-03T08:37:07;7.43;;;3.38;;
11471;SDS011;47430;50.808;4.388;2022-09-03T08:39:35;6.75;;;3.08;;
11471;SDS011;47430;50.808;4.388;2022-09-03T08:42:05;7.03;;;3.05;;
11471;SDS011;47430;50.808;4.388;2022-09-03T08:47:32;3.88;;;2.92;;
11471;SDS011;47430;50.808;4.388;2022-09-03T08:52:47;5.80;;;3.42;;
11471;SDS011;47430;50.808;4.388;2022-09-03T08:58:05;5.97;;;3.40;;
11471;SDS011;47430;50.808;4.388;2022-09-03T09:00:39;4.45;;;3.13;;
11471;SDS011;47430;50.808;4.388;2022-09-03T09:05:48;5.43;;;3.70;;
11471;SDS011;47430;50.808;4.388;2022-09-03T09:08:22;5.78;;;4.13;;
11471;SDS011;47430;50.808;4.388;2022-09-03T09:21:33;6.47;;;3.40;;
11471;SDS011;47430;50.808;4.388;2022-09-03T09:24:04;7.35;;;3.58;;
11471;SDS011;47430;50.808;4.388;2022-09-03T09:26:32;4.85;;;3.58;;
11471;SDS011;47430;50.808;4.388;2022-09-03T09:29:01;8.55;;;4.05;;
11471;SDS011;47430;50.808;4.388;2022-09-03T09:31:30;8.15;;;3.22;;
11471;SDS011;47430;50.808;4.388;2022-09-03T09:34:03;6.88;;;3.65;;
11471;SDS011;47430;50.808;4.388;2022-09-03T09:36:31;5.22;;;3.45;;
11471;SDS011;47430;50.808;4.388;2022-09-03T09:39:10;5.15;;;3.15;;
11471;SDS011;47430;50.808;4.388;2022-09-03T09:41:39;13.18;;;4.65;;
11471;SDS011;47430;50.808;4.388;2022-09-03T09:44:07;6.28;;;3.88;;
11471;SDS011;47430;50.808;4.388;2022-09-03T09:49:00;4.95;;;3.40;;
11471;SDS011;47430;50.808;4.388;2022-09-03T09:51:29;5.25;;;3.50;;
11471;SDS011;47430;50.808;4.388;2022-09-03T09:54:15;10.43;;;3.70;;
11471;SDS011;47430;50.808;4.388;2022-09-03T09:56:44;4.50;;;3.58;;
11471;SDS011;47430;50.808;4.388;2022-09-03T09:59:11;6.97;;;3.58;;
11471;SDS011;47430;50.808;4.388;2022-09-03T10:01:41;6.28;;;3.30;;
11471;SDS011;47430;50.808;4.388;2022-09-03T10:04:09;3.90;;;3.17;;
11471;SDS011;47430;50.808;4.388;2022-09-03T10:06:37;12.95;;;3.42;;
11471;SDS011;47430;50.808;4.388;2022-09-03T10:09:20;8.50;;;3.45;;
11471;SDS011;47430;50.808;4.388;2022-09-03T10:14:39;6.97;;;3.17;;
11471;SDS011;47430;50.808;4.388;2022-09-03T10:17:24;6.65;;;3.55;;
11471;SDS011;47430;50.808;4.388;2022-09-03T10:25:33;4.05;;;3.65;;
11471;SDS011;47430;50.808;4.388;2022-09-03T10:28:04;14.52;;;4.65;;
11471;SDS011;47430;50.808;4.388;2022-09-03T10:30:32;5.18;;;3.72;;
11471;SDS011;47430;50.808;4.388;2022-09-03T10:33:29;6.82;;;3.60;;
11471;SDS011;47430;50.808;4.388;2022-09-03T10:36:04;4.22;;;3.33;;
11471;SDS011;47430;50.808;4.388;2022-09-03T10:38:37;6.70;;;3.83;;
11471;SDS011;47430;50.808;4.388;2022-09-03T10:44:00;7.82;;;4.35;;
11471;SDS011;47430;50.808;4.388;2022-09-03T10:46:44;10.73;;;4.05;;
11471;SDS011;47430;50.808;4.388;2022-09-03T10:49:15;7.20;;;3.53;;
11471;SDS011;47430;50.808;4.388;2022-09-03T10:51:48;5.53;;;4.00;;
11471;SDS011;47430;50.808;4.388;2022-09-03T10:54:31;10.95;;;3.83;;
11471;SDS011;47430;50.808;4.388;2022-09-03T11:07:39;7.60;;;3.88;;
11471;SDS011;47430;50.808;4.388;2022-09-03T11:12:34;7.40;;;4.28;;
11471;SDS011;47430;50.808;4.388;2022-09-03T11:15:02;7.95;;;3.70;;
11471;SDS011;47430;50.808;4.388;2022-09-03T11:17:39;5.68;;;3.50;;
11471;SDS011;47430;50.808;4.388;2022-09-03T11:20:11;7.38;;;3.53;;
11471;SDS011;47430;50.808;4.388;2022-09-03T11:22:40;6.07;;;3.88;;
11471;SDS011;47430;50.808;4.388;2022-09-03T11:25:07;4.93;;;3.55;;
11471;SDS011;47430;50.808;4.388;2022-09-03T11:30:12;5.65;;;3.70;;
11471;SDS011;47430;50.808;4.388;2022-09-03T11:35:24;5.95;;;3.67;;
11471;SDS011;47430;50.808;4.388;2022-09-03T11:38:00;5.60;;;4.00;;
11471;SDS011;47430;50.808;4.388;2022-09-03T11:40:30;4.82;;;3.25;;
11471;SDS011;47430;50.808;4.388;2022-09-03T11:43:06;5.07;;;3.58;;
11471;SDS011;47430;50.808;4.388;2022-09-03T11:45:34;6.25;;;4.55;;
11471;SDS011;47430;50.808;4.388;2022-09-03T11:48:00;5.80;;;3.55;;
11471;SDS011;47430;50.808;4.388;2022-09-03T11:50:28;5.00;;;3.80;;
11471;SDS011;47430;50.808;4.388;2022-09-03T11:58:21;4.60;;;4.13;;
11471;SDS011;47430;50.808;4.388;2022-09-03T12:00:48;4.75;;;3.97;;
11471;SDS011;47430;50.808;4.388;2022-09-03T12:03:22;5.57;;;3.95;;
11471;SDS011;47430;50.808;4.388;2022-09-03T12:06:09;4.45;;;3.83;;
11471;SDS011;47430;50.808;4.388;2022-09-03T12:08:56;6.88;;;3.97;;
11471;SDS011;47430;50.808;4.388;2022-09-03T12:11:28;6.22;;;3.83;;
11471;SDS011;47430;50.808;4.388;2022-09-03T12:14:08;7.90;;;4.25;;
11471;SDS011;47430;50.808;4.388;2022-09-03T12:19:19;4.97;;;3.47;;
11471;SDS011;47430;50.808;4.388;2022-09-03T12:21:48;5.85;;;3.72;;
11471;SDS011;47430;50.808;4.388;2022-09-03T12:24:15;7.72;;;3.80;;
11471;SDS011;47430;50.808;4.388;2022-09-03T12:26:45;4.32;;;3.72;;
11471;SDS011;47430;50.808;4.388;2022-09-03T12:29:24;7.32;;;3.58;;
11471;SDS011;47430;50.808;4.388;2022-09-03T12:31:51;6.25;;;3.72;;
11471;SDS011;47430;50.808;4.388;2022-09-03T12:34:20;6.40;;;3.28;;
11471;SDS011;47430;50.808;4.388;2022-09-03T12:36:48;7.43;;;3.65;;
11471;SDS011;47430;50.808;4.388;2022-09-03T12:44:23;5.40;;;3.35;;
11471;SDS011;47430;50.808;4.388;2022-09-03T12:46:58;5.82;;;3.05;;
11471;SDS011;47430;50.808;4.388;2022-09-03T12:49:24;5.22;;;3.20;;
11471;SDS011;47430;50.808;4.388;2022-09-03T12:51:56;5.32;;;3.58;;
11471;SDS011;47430;50.808;4.388;2022-09-03T12:54:23;5.53;;;3.47;;
11471;SDS011;47430;50.808;4.388;2022-09-03T12:56:52;5.97;;;2.83;;
11471;SDS011;47430;50.808;4.388;2022-09-03T12:59:21;4.68;;;3.30;;
11471;SDS011;47430;50.808;4.388;2022-09-03T13:01:52;9.48;;;3.60;;
11471;SDS011;47430;50.808;4.388;2022-09-03T13:04:21;3.92;;;3.08;;
11471;SDS011;47430;50.808;4.388;2022-09-03T13:09:27;2.80;;;2.17;;
11471;SDS011;47430;50.808;4.388;2022-09-03T13:11:56;2.30;;;2.10;;
11471;SDS011;47430;50.808;4.388;2022-09-03T13:14:24;3.85;;;2.05;;
11471;SDS011;47430;50.808;4.388;2022-09-03T13:16:55;2.95;;;2.30;;
11471;SDS011;47430;50.808;4.388;2022-09-03T13:19:34;3.75;;;2.40;;
11471;SDS011;47430;50.808;4.388;2022-09-03T13:24:39;2.88;;;2.20;;
11471;SDS011;47430;50.808;4.388;2022-09-03T13:35:21;2.15;;;1.90;;
11471;SDS011;47430;50.808;4.388;2022-09-03T13:37:51;3.17;;;2.15;;
11471;SDS011;47430;50.808;4.388;2022-09-03T13:45:38;2.35;;;1.83;;
11471;SDS011;47430;50.808;4.388;2022-09-03T13:48:16;3.47;;;1.88;;
11471;SDS011;47430;50.808;4.388;2022-09-03T13:59:00;3.58;;;2.05;;
11471;SDS011;47430;50.808;4.388;2022-09-03T14:04:00;3.33;;;2.10;;
11471;SDS011;47430;50.808;4.388;2022-09-03T14:06:47;2.78;;;2.25;;
11471;SDS011;47430;50.808;4.388;2022-09-03T14:09:39;2.97;;;2.10;;
11471;SDS011;47430;50.808;4.388;2022-09-03T14:12:09;3.50;;;2.05;;
11471;SDS011;47430;50.808;4.388;2022-09-03T14:17:09;2.10;;;1.88;;
11471;SDS011;47430;50.808;4.388;2022-09-03T14:22:12;2.58;;;1.67;;
11471;SDS011;47430;50.808;4.388;2022-09-03T14:24:43;4.32;;;2.20;;
11471;SDS011;47430;50.808;4.388;2022-09-03T14:27:10;2.03;;;1.83;;
11471;SDS011;47430;50.808;4.388;2022-09-03T14:29:36;2.90;;;2.00;;
11471;SDS011;47430;50.808;4.388;2022-09-03T14:32:06;2.10;;;1.90;;
11471;SDS011;47430;50.808;4.388;2022-09-03T14:40:12;2.83;;;2.10;;
11471;SDS011;47430;50.808;4.388;2022-09-03T14:45:14;4.80;;;2.00;;
11471;SDS011;47430;50.808;4.388;2022-09-03T15:00:36;2.60;;;1.88;;
11471;SDS011;47430;50.808;4.388;2022-09-03T15:03:33;5.25;;;2.60;;
11471;SDS011;47430;50.808;4.388;2022-09-03T15:08:34;2.92;;;2.50;;
11471;SDS011;47430;50.808;4.388;2022-09-03T15:11:02;5.03;;;2.78;;
11471;SDS011;47430;50.808;4.388;2022-09-03T15:13:43;4.72;;;2.63;;
11471;SDS011;47430;50.808;4.388;2022-09-03T15:21:28;3.20;;;2.90;;
11471;SDS011;47430;50.808;4.388;2022-09-03T15:31:25;4.95;;;3.20;;
11471;SDS011;47430;50.808;4.388;2022-09-03T15:36:23;3.75;;;3.28;;
11471;SDS011;47430;50.808;4.388;2022-09-03T15:41:25;2.72;;;2.53;;
11471;SDS011;47430;50.808;4.388;2022-09-03T15:43:57;6.85;;;3.80;;
11471;SDS011;47430;50.808;4.388;2022-09-03T15:51:58;4.43;;;3.30;;
11471;SDS011;47430;50.808;4.388;2022-09-03T15:59:49;10.25;;;3.78;;
11471;SDS011;47430;50.808;4.388;2022-09-03T16:02:17;5.05;;;3.20;;
11471;SDS011;47430;50.808;4.388;2022-09-03T16:15:18;6.60;;;3.33;;
11471;SDS011;47430;50.808;4.388;2022-09-03T16:20:40;7.10;;;4.15;;
11471;SDS011;47430;50.808;4.388;2022-09-03T16:25:50;8.68;;;3.58;;
11471;SDS011;47430;50.808;4.388;2022-09-03T16:28:18;5.50;;;3.90;;
11471;SDS011;47430;50.808;4.388;2022-09-03T16:30:51;9.55;;;3.95;;
11471;SDS011;47430;50.808;4.388;2022-09-03T16:41:11;5.57;;;3.20;;
11471;SDS011;47430;50.808;4.388;2022-09-03T16:43:43;5.15;;;3.50;;
11471;SDS011;47430;50.808;4.388;2022-09-03T16:48:53;7.55;;;3.95;;
11471;SDS011;47430;50.808;4.388;2022-09-03T17:02:28;9.45;;;5.32;;
11471;SDS011;47430;50.808;4.388;2022-09-03T17:10:40;12.52;;;6.80;;
11471;SDS011;47430;50.808;4.388;2022-09-03T17:18:52;9.82;;;6.45;;
11471;SDS011;47430;50.808;4.388;2022-09-03T17:24:16;12.32;;;5.10;;
11471;SDS011;47430;50.808;4.388;2022-09-03T17:37:17;11.10;;;4.07;;
11471;SDS011;47430;50.808;4.388;2022-09-03T17:42:28;4.07;;;3.03;;
11471;SDS011;47430;50.808;4.388;2022-09-03T17:47:40;6.28;;;4.15;;
11471;SDS011;47430;50.808;4.388;2022-09-03T17:50:22;9.10;;;4.30;;
11471;SDS011;47430;50.808;4.388;2022-09-03T17:57:49;5.75;;;4.35;;
11471;SDS011;47430;50.808;4.388;2022-09-03T18:00:33;9.10;;;5.10;;
11471;SDS011;47430;50.808;4.388;2022-09-03T18:05:55;9.48;;;5.35;;
11471;SDS011;47430;50.808;4.388;2022-09-03T18:11:12;7.22;;;4.47;;
11471;SDS011;47430;50.808;4.388;2022-09-03T18:18:41;7.57;;;4.38;;
11471;SDS011;47430;50.808;4.388;2022-09-03T18:21:11;9.00;;;5.13;;
11471;SDS011;47430;50.808;4.388;2022-09-03T18:24:01;7.57;;;5.43;;
11471;SDS011;47430;50.808;4.388;2022-09-03T18:27:31;4.57;;;3.40;;
11471;SDS011;47430;50.808;4.388;2022-09-03T18:32:46;5.25;;;3.10;;
11471;SDS011;47430;50.808;4.388;2022-09-03T18:35:30;4.50;;;2.72;;
11471;SDS011;47430;50.808;4.388;2022-09-03T18:38:25;6.90;;;3.20;;
11471;SDS011;47430;50.808;4.388;2022-09-03T18:44:16;5.00;;;3.00;;
11471;SDS011;47430;50.808;4.388;2022-09-03T18:50:06;2.80;;;2.30;;
11471;SDS011;47430;50.808;4.388;2022-09-03T18:52:58;6.63;;;2.20;;
11471;SDS011;47430;50.808;4.388;2022-09-03T18:58:37;2.53;;;1.88;;
11471;SDS011;47430;50.808;4.388;2022-09-03T19:01:29;2.72;;;2.22;;
11471;SDS011;47430;50.808;4.388;2022-09-03T19:07:22;2.53;;;1.80;;
11471;SDS011;47430;50.808;4.388;2022-09-03T19:10:11;5.45;;;2.00;;
11471;SDS011;47430;50.808;4.388;2022-09-03T19:15:53;2.65;;;1.90;;
11471;SDS011;47430;50.808;4.388;2022-09-03T19:21:46;4.82;;;2.15;;
11471;SDS011;47430;50.808;4.388;2022-09-03T19:24:32;2.75;;;2.22;;
11471;SDS011;47430;50.808;4.388;2022-09-03T19:30:06;3.42;;;2.45;;
11471;SDS011;47430;50.808;4.388;2022-09-03T19:32:58;2.60;;;2.03;;
11471;SDS011;47430;50.808;4.388;2022-09-03T19:41:30;3.67;;;2.38;;
11471;SDS011;47430;50.808;4.388;2022-09-03T19:44:26;3.55;;;2.30;;
11471;SDS011;47430;50.808;4.388;2022-09-03T19:47:18;10.73;;;2.90;;
11471;SDS011;47430;50.808;4.388;2022-09-03T19:50:16;3.97;;;2.10;;
11471;SDS011;47430;50.808;4.388;2022-09-03T19:53:07;3.03;;;2.40;;
11471;SDS011;47430;50.808;4.388;2022-09-03T19:55:57;3.10;;;2.55;;
11471;SDS011;47430;50.808;4.388;2022-09-03T19:58:47;4.10;;;2.60;;
11471;SDS011;47430;50.808;4.388;2022-09-03T20:01:34;6.28;;;2.53;;
11471;SDS011;47430;50.808;4.388;2022-09-03T20:04:20;5.68;;;2.88;;
11471;SDS011;47430;50.808;4.388;2022-09-03T20:07:08;9.60;;;3.08;;
11471;SDS011;47430;50.808;4.388;2022-09-03T20:09:55;5.10;;;3.60;;
11471;SDS011;47430;50.808;4.388;2022-09-03T20:12:42;3.00;;;2.70;;
11471;SDS011;47430;50.808;4.388;2022-09-03T20:15:12;4.43;;;3.25;;
11471;SDS011;47430;50.808;4.388;2022-09-03T20:20:14;4.38;;;2.95;;
11471;SDS011;47430;50.808;4.388;2022-09-03T20:30:31;7.85;;;3.10;;
11471;SDS011;47430;50.808;4.388;2022-09-03T20:33:08;8.32;;;4.50;;